Time;durP1;ratioP1;P1;durP2;ratioP2;P2;SDS_P1;SDS_P2;PMS_P1;PMS_P2;Temp;Humidity;BMP_temperature;BMP_pressure;BME280_temperature;BME280_humidity;BME280_pressure;Samples;Min_cycle;Max_cycle;Signal;HPM_P1;HPM_P2
2022/06/29 00:02:04;;;;;;;1999.90;999.90;;;14.80;99.90;;;;;;5090259;28;20036;-74
2022/06/29 00:04:29;;;;;;;1999.90;999.90;;;14.80;99.90;;;;;;5073653;28;20071;-74
2022/06/29 00:06:55;;;;;;;1999.90;999.90;;;14.90;99.90;;;;;;5073642;28;20071;-74
2022/06/29 00:09:20;;;;;;;1999.90;999.90;;;14.90;99.90;;;;;;5090706;28;20420;-74
2022/06/29 00:11:46;;;;;;;1999.90;999.90;;;15.00;99.90;;;;;;5071591;28;20044;-73
2022/06/29 00:14:12;;;;;;;1999.90;999.90;;;15.00;99.90;;;;;;5057692;28;20047;-74
2022/06/29 00:16:37;;;;;;;1999.90;999.90;;;15.10;99.90;;;;;;5073644;28;20040;-74
2022/06/29 00:19:03;;;;;;;1999.90;999.90;;;15.10;99.90;;;;;;5069872;28;20044;-74
2022/06/29 00:21:28;;;;;;;1999.90;999.90;;;15.10;99.90;;;;;;5068490;28;20119;-74
2022/06/29 00:23:54;;;;;;;1999.90;999.90;;;15.10;99.90;;;;;;5070484;28;20486;-74
2022/06/29 00:26:20;;;;;;;1999.90;999.90;;;15.10;99.90;;;;;;5086948;28;20131;-74
2022/06/29 00:28:45;;;;;;;1999.90;999.90;;;15.10;99.90;;;;;;5101694;28;20090;-74
2022/06/29 00:31:11;;;;;;;1999.90;999.90;;;15.10;99.90;;;;;;5084637;28;20044;-74
2022/06/29 00:33:36;;;;;;;1999.90;999.90;;;15.00;99.90;;;;;;5106113;28;20472;-74
2022/06/29 00:36:02;;;;;;;1999.90;999.90;;;15.00;99.90;;;;;;5064155;28;20555;-74
2022/06/29 00:38:28;;;;;;;1999.90;999.90;;;15.00;99.90;;;;;;5069149;28;20093;-74
2022/06/29 00:40:53;;;;;;;1999.90;999.90;;;14.90;99.90;;;;;;5054785;28;20052;-74
2022/06/29 00:43:19;;;;;;;1999.90;999.90;;;14.90;99.90;;;;;;5076186;28;20122;-74
2022/06/29 00:45:45;;;;;;;1999.90;999.90;;;14.90;99.90;;;;;;5076535;28;20545;-74
2022/06/29 00:48:10;;;;;;;1999.90;999.90;;;14.80;99.90;;;;;;5048148;28;20447;-74
2022/06/29 00:50:38;;;;;;;1999.90;999.90;;;14.80;99.90;;;;;;5100942;28;20048;-74
2022/06/29 00:53:05;;;;;;;1999.90;999.90;;;14.70;99.90;;;;;;5097464;28;20043;-74
2022/06/29 00:55:35;;;;;;;1999.90;999.90;;;14.70;99.90;;;;;;5077705;28;20539;-74
2022/06/29 00:58:05;;;;;;;1999.90;999.90;;;14.70;99.90;;;;;;5069862;28;20079;-74
2022/06/29 01:00:32;;;;;;;1999.90;999.90;;;14.60;99.90;;;;;;5065645;28;20125;-74
2022/06/29 01:03:01;;;;;;;1999.90;999.90;;;14.60;99.90;;;;;;5045693;28;20176;-74
2022/06/29 01:05:28;;;;;;;1999.90;999.90;;;14.60;99.90;;;;;;5102082;28;20045;-74
2022/06/29 01:07:54;;;;;;;1999.90;999.90;;;14.50;99.90;;;;;;5052588;28;20051;-74
2022/06/29 01:10:20;;;;;;;1999.90;999.90;;;14.50;99.90;;;;;;5085517;28;20036;-74
2022/06/29 01:12:51;;;;;;;1999.90;999.90;;;14.40;99.90;;;;;;5059811;28;20078;-74
2022/06/29 01:15:17;;;;;;;1999.90;999.90;;;14.40;99.90;;;;;;5072090;28;20044;-74
2022/06/29 01:17:43;;;;;;;1999.90;999.90;;;14.40;99.90;;;;;;5089432;28;20048;-74
2022/06/29 01:20:10;;;;;;;1999.90;999.90;;;14.40;99.90;;;;;;5056021;28;20471;-74
2022/06/29 01:22:37;;;;;;;1999.90;999.90;;;14.30;99.90;;;;;;5096294;28;20040;-74
2022/06/29 01:25:04;;;;;;;1999.90;999.90;;;14.30;99.90;;;;;;5053511;28;20032;-74
2022/06/29 01:27:29;;;;;;;1999.90;999.90;;;14.30;99.90;;;;;;5072082;28;20035;-74
2022/06/29 01:29:55;;;;;;;1999.90;999.90;;;14.30;99.90;;;;;;5106112;28;20051;-74
2022/06/29 01:32:22;;;;;;;1999.90;999.90;;;14.30;99.90;;;;;;5062451;28;20044;-74
2022/06/29 01:34:48;;;;;;;1999.90;999.90;;;14.30;99.90;;;;;;5088937;28;20048;-74
2022/06/29 01:37:14;;;;;;;1999.90;999.90;;;14.30;99.90;;;;;;5058566;28;20115;-74
2022/06/29 01:39:42;;;;;;;1999.90;999.90;;;14.30;99.90;;;;;;5072241;28;20135;-74
2022/06/29 01:42:09;;;;;;;1999.90;999.90;;;14.40;99.90;;;;;;5059840;28;20516;-74
2022/06/29 01:44:36;;;;;;;1999.90;999.90;;;14.40;99.90;;;;;;5089065;28;20047;-74
2022/06/29 01:47:03;;;;;;;1999.90;999.90;;;14.50;99.90;;;;;;5054321;28;20035;-74
2022/06/29 01:49:29;;;;;;;1999.90;999.90;;;14.50;99.90;;;;;;5074973;28;20044;-74
2022/06/29 01:51:55;;;;;;;1999.90;999.90;;;14.70;99.90;;;;;;5066278;28;20047;-73
2022/06/29 01:54:21;;;;;;;1999.90;999.90;;;14.70;99.90;;;;;;5066592;28;20044;-74
2022/06/29 01:56:47;;;;;;;1999.90;999.90;;;14.70;99.90;;;;;;5071592;28;20046;-74
2022/06/29 01:59:12;;;;;;;1999.90;999.90;;;14.80;99.90;;;;;;5049476;28;20137;-74
2022/06/29 02:01:39;;;;;;;1999.90;999.90;;;14.80;99.90;;;;;;5106024;28;20039;-74
2022/06/29 02:04:05;;;;;;;1999.90;999.90;;;14.90;99.90;;;;;;5088813;28;20048;-74
2022/06/29 02:06:32;;;;;;;1999.90;999.90;;;14.90;99.90;;;;;;5065398;28;20036;-74
2022/06/29 02:08:57;;;;;;;1999.90;999.90;;;14.90;99.90;;;;;;5080703;28;20464;-74
2022/06/29 02:11:23;;;;;;;1999.90;999.90;;;15.00;99.90;;;;;;5071861;28;20109;-74
2022/06/29 02:13:49;;;;;;;1999.90;999.90;;;15.00;99.90;;;;;;5100432;28;20498;-74
2022/06/29 02:16:16;;;;;;;1999.90;999.90;;;15.10;99.90;;;;;;5049284;28;20040;-74
2022/06/29 02:18:42;;;;;;;1999.90;999.90;;;15.10;99.90;;;;;;5052058;28;20685;-74
2022/06/29 02:21:08;;;;;;;1999.90;999.90;;;15.20;99.90;;;;;;5098597;28;20115;-74
2022/06/29 02:23:34;;;;;;;1999.90;999.90;;;15.10;99.90;;;;;;5105066;28;20588;-74
2022/06/29 02:25:59;;;;;;;1999.90;999.90;;;15.20;99.90;;;;;;5099322;28;20040;-74
2022/06/29 02:28:25;;;;;;;1999.90;999.90;;;15.20;99.90;;;;;;5087927;28;20036;-74
2022/06/29 02:36:19;;;;;;;1999.90;999.90;;;15.30;99.90;;;;;;5087741;28;20069;-74
2022/06/29 02:38:44;;;;;;;1999.90;999.90;;;15.30;99.90;;;;;;5049922;28;20041;-74
2022/06/29 02:41:10;;;;;;;1999.90;999.90;;;15.30;99.90;;;;;;5061411;28;20201;-75
2022/06/29 02:43:37;;;;;;;1999.90;999.90;;;15.40;99.90;;;;;;5093185;28;20040;-74
2022/06/29 02:46:03;;;;;;;1999.90;999.90;;;15.40;99.90;;;;;;5066548;28;20434;-74
2022/06/29 02:48:28;;;;;;;1999.90;999.90;;;15.40;99.90;;;;;;5083660;28;20043;-74
2022/06/29 02:50:54;;;;;;;1999.90;999.90;;;15.40;99.90;;;;;;5087805;28;20083;-74
2022/06/29 02:53:20;;;;;;;1999.90;999.90;;;15.40;99.90;;;;;;5055610;28;20052;-74
2022/06/29 02:55:45;;;;;;;1999.90;999.90;;;15.40;99.90;;;;;;5071153;28;20043;-74
2022/06/29 02:58:11;;;;;;;1999.90;999.90;;;15.30;99.90;;;;;;5087764;28;20109;-74
2022/06/29 03:00:36;;;;;;;1999.90;999.90;;;15.30;99.90;;;;;;5071103;28;20486;-74
2022/06/29 03:03:02;;;;;;;1999.90;999.90;;;15.30;99.90;;;;;;5052480;28;20048;-74
2022/06/29 03:05:28;;;;;;;1999.90;999.90;;;15.20;99.90;;;;;;5070881;28;20047;-74
2022/06/29 03:07:53;;;;;;;1999.90;999.90;;;15.20;99.90;;;;;;5070398;28;20142;-74
2022/06/29 03:10:19;;;;;;;1999.90;999.90;;;15.20;99.90;;;;;;5067992;28;20101;-74
2022/06/29 03:12:45;;;;;;;1999.90;999.90;;;15.20;99.90;;;;;;5077685;28;20390;-74
2022/06/29 03:15:10;;;;;;;1999.90;999.90;;;15.10;99.90;;;;;;5087054;28;20044;-74
2022/06/29 03:17:36;;;;;;;1999.90;999.90;;;15.00;99.90;;;;;;5054112;28;20101;-76
2022/06/29 03:20:04;;;;;;;1999.90;999.90;;;15.00;99.90;;;;;;5051645;28;20044;-76
2022/06/29 03:22:30;;;;;;;1999.90;999.90;;;15.00;99.90;;;;;;5104197;28;20068;-76
2022/06/29 03:24:56;;;;;;;1999.90;999.90;;;15.00;99.90;;;;;;5070309;28;20101;-76
2022/06/29 03:27:22;;;;;;;1999.90;999.90;;;14.90;99.90;;;;;;5070546;28;20036;-76
2022/06/29 03:29:47;;;;;;;1999.90;999.90;;;14.90;99.90;;;;;;5067432;28;20039;-76
2022/06/29 03:32:13;;;;;;;1999.90;999.90;;;14.90;99.90;;;;;;5084998;28;21447;-76
2022/06/29 03:34:39;;;;;;;1999.90;999.90;;;14.90;99.90;;;;;;5092382;28;20043;-76
2022/06/29 03:37:04;;;;;;;1999.90;999.90;;;14.90;99.90;;;;;;5070352;28;20044;-76
2022/06/29 03:39:30;;;;;;;1999.90;999.90;;;14.90;99.90;;;;;;5103768;28;20055;-76
2022/06/29 03:41:56;;;;;;;1999.90;999.90;;;14.80;99.90;;;;;;5068571;28;20128;-76
2022/06/29 03:44:21;;;;;;;1999.90;999.90;;;14.90;99.90;;;;;;5038957;28;20391;-76
2022/06/29 03:46:47;;;;;;;1999.90;999.90;;;14.90;99.90;;;;;;5070165;28;20467;-74
2022/06/29 03:49:13;;;;;;;1999.90;999.90;;;14.90;99.90;;;;;;5067405;28;20052;-74
2022/06/29 03:51:38;;;;;;;1999.90;999.90;;;14.80;99.90;;;;;;5053088;28;20075;-74
2022/06/29 03:54:04;;;;;;;1999.90;999.90;;;14.80;99.90;;;;;;5102433;28;20043;-74
2022/06/29 03:56:29;;;;;;;1999.90;999.90;;;14.80;99.90;;;;;;5070185;28;20044;-74
2022/06/29 03:58:55;;;;;;;1999.90;999.90;;;14.80;99.90;;;;;;5084170;28;20044;-74
2022/06/29 04:01:21;;;;;;;1999.90;999.90;;;14.80;99.90;;;;;;5086349;28;20133;-74
2022/06/29 04:03:46;;;;;;;1999.90;999.90;;;14.80;99.90;;;;;;5048580;28;20401;-74
2022/06/29 04:06:13;;;;;;;1999.90;999.90;;;14.80;99.90;;;;;;5052997;28;20386;-74
2022/06/29 04:08:39;;;;;;;1999.90;999.90;;;14.80;99.90;;;;;;5046380;28;20039;-74
2022/06/29 04:11:48;;;;;;;1999.90;999.90;;;14.80;99.90;;;;;;5068652;28;20818;-74
2022/06/29 04:13:52;;;;;;;1999.90;999.90;;;14.80;99.90;;;;;;5058622;28;20052;-74
2022/06/29 04:16:18;;;;;;;1999.90;999.90;;;14.80;99.90;;;;;;5053071;28;20048;-76
2022/06/29 04:18:43;;;;;;;1999.90;999.90;;;14.80;99.90;;;;;;5052130;28;20047;-76
2022/06/29 04:21:09;;;;;;;1999.90;999.90;;;14.80;99.90;;;;;;5069405;28;20040;-74
2022/06/29 04:23:34;;;;;;;1999.90;999.90;;;14.90;99.90;;;;;;5068598;28;20036;-74
2022/06/29 04:26:00;;;;;;;1999.90;999.90;;;14.90;99.90;;;;;;5060073;28;20539;-74
2022/06/29 04:28:26;;;;;;;1999.90;999.90;;;15.10;99.90;;;;;;5070056;28;20036;-74
2022/06/29 04:30:51;;;;;;;1999.90;999.90;;;15.20;99.90;;;;;;5086703;28;20044;-74
2022/06/29 04:33:17;;;;;;;1999.90;999.90;;;15.30;99.90;;;;;;5051666;28;20584;-74
2022/06/29 04:35:42;;;;;;;1999.90;999.90;;;15.40;99.90;;;;;;5069896;28;20048;-74
2022/06/29 04:38:08;;;;;;;1999.90;999.90;;;15.60;99.90;;;;;;5053368;28;20054;-74
2022/06/29 04:40:34;;;;;;;1999.90;999.90;;;15.80;99.90;;;;;;5051312;28;20438;-74
2022/06/29 04:42:59;;;;;;;1999.90;999.90;;;15.90;99.90;;;;;;5062217;28;20111;-74
2022/06/29 04:48:09;;;;;;;1999.90;999.90;;;15.90;99.90;;;;;;5065685;28;20083;-74
2022/06/29 04:50:35;;;;;;;1999.90;999.90;;;15.90;99.90;;;;;;5066206;28;20080;-74
2022/06/29 04:53:00;;;;;;;1999.90;999.90;;;16.00;99.90;;;;;;5058025;28;20055;-74
2022/06/29 04:55:28;;;;;;;1999.90;999.90;;;16.00;99.90;;;;;;5052997;28;20050;-74
2022/06/29 04:57:54;;;;;;;1999.90;999.90;;;16.10;99.90;;;;;;5063430;28;20076;-74
2022/06/29 05:00:19;;;;;;;1999.90;999.90;;;16.10;99.90;;;;;;5070147;28;20083;-74
2022/06/29 05:02:45;;;;;;;1999.90;999.90;;;16.20;99.90;;;;;;5039929;28;20051;-74
2022/06/29 05:05:10;;;;;;;1999.90;999.90;;;16.30;99.90;;;;;;5069415;28;20039;-74
2022/06/29 05:07:36;;;;;;;1999.90;999.90;;;16.50;99.90;;;;;;5069605;28;20108;-74
2022/06/29 05:10:02;;;;;;;1999.90;999.90;;;16.50;99.90;;;;;;5069575;28;20476;-74
2022/06/29 05:12:28;;;;;;;1999.90;999.90;;;16.60;99.90;;;;;;5066420;28;20097;-74
2022/06/29 05:14:53;;;;;;;1999.90;999.90;;;16.70;99.90;;;;;;5052257;28;20509;-74
2022/06/29 05:17:19;;;;;;;1999.90;999.90;;;16.70;99.90;;;;;;5060127;28;20044;-74
2022/06/29 05:19:44;;;;;;;1999.90;999.90;;;16.80;99.90;;;;;;5069056;28;20044;-77
2022/06/29 05:22:10;;;;;;;1999.90;999.90;;;16.80;99.90;;;;;;5052608;28;20048;-77
2022/06/29 05:24:36;;;;;;;1999.90;999.90;;;16.90;99.90;;;;;;5043106;28;20040;-77
2022/06/29 05:27:01;;;;;;;1999.90;999.90;;;17.00;99.90;;;;;;5082397;28;20032;-77
2022/06/29 05:29:27;;;;;;;1999.90;999.90;;;17.10;99.90;;;;;;5069373;28;20401;-77
2022/06/29 05:31:53;;;;;;;1999.90;999.90;;;17.10;99.90;;;;;;5066464;28;20044;-77
2022/06/29 05:34:18;;;;;;;1999.90;999.90;;;17.10;99.90;;;;;;5057732;28;20033;-77
2022/06/29 05:36:44;;;;;;;1999.90;999.90;;;17.10;99.90;;;;;;5068970;28;20076;-77
2022/06/29 05:39:10;;;;;;;1999.90;999.90;;;17.20;99.90;;;;;;5053449;28;20044;-77
2022/06/29 05:41:37;;;;;;;1999.90;999.90;;;17.20;99.90;;;;;;5072145;28;20173;-77
2022/06/29 05:44:04;;;;;;;1999.90;999.90;;;17.20;99.90;;;;;;5055369;28;20581;-77
2022/06/29 05:46:30;;;;;;;1999.90;999.90;;;17.30;99.90;;;;;;5080737;28;20053;-77
2022/06/29 05:48:56;;;;;;;1999.90;999.90;;;17.40;99.90;;;;;;5077717;28;20039;-77
2022/06/29 05:51:22;;;;;;;1999.90;999.90;;;17.70;99.90;;;;;;5059439;28;20048;-77
2022/06/29 05:53:49;;;;;;;1999.90;999.90;;;17.90;99.90;;;;;;5058287;28;20055;-77
2022/06/29 05:56:15;;;;;;;1999.90;999.90;;;18.00;99.90;;;;;;5060012;28;20177;-77
2022/06/29 05:58:40;;;;;;;1999.90;999.90;;;18.20;99.90;;;;;;5074249;28;20127;-76
2022/06/29 06:01:09;;;;;;;1999.90;999.90;;;18.50;99.90;;;;;;5075017;28;20052;-76
2022/06/29 06:03:34;;;;;;;1999.90;999.90;;;18.70;99.90;;;;;;5058064;28;20036;-78
2022/06/29 06:06:00;;;;;;;1999.90;999.90;;;19.00;99.90;;;;;;5059184;28;20050;-77
2022/06/29 06:08:26;;;;;;;1999.90;999.90;;;19.50;99.90;;;;;;5040829;28;20126;-77
2022/06/29 06:10:51;;;;;;;1999.90;999.90;;;20.00;99.90;;;;;;5040924;28;20047;-77
2022/06/29 06:13:17;;;;;;;1999.90;999.90;;;20.30;99.90;;;;;;5091420;28;20051;-77
2022/06/29 06:15:43;;;;;;;1999.90;999.90;;;20.90;99.90;;;;;;5090922;28;20055;-77
2022/06/29 06:18:08;;;;;;;1999.90;999.90;;;21.90;99.90;;;;;;5061335;28;20036;-77
2022/06/29 06:20:34;;;;;;;1999.90;999.90;;;23.00;99.90;;;;;;5065784;28;20043;-73
2022/06/29 06:22:59;;;;;;;1999.90;999.90;;;23.60;99.90;;;;;;5068489;28;20036;-74
2022/06/29 06:25:25;;;;;;;1999.90;999.90;;;24.00;99.90;;;;;;5087709;28;20047;-74
2022/06/29 06:27:50;;;;;;;1999.90;999.90;;;24.50;99.90;;;;;;5067003;28;20040;-74
2022/06/29 06:30:16;;;;;;;1999.90;999.90;;;25.00;99.90;;;;;;5104054;28;20305;-74
2022/06/29 06:32:42;;;;;;;1999.90;999.90;;;25.40;98.80;;;;;;5077895;28;20135;-74
2022/06/29 06:35:08;;;;;;;1999.90;999.90;;;25.60;95.50;;;;;;5051418;28;20072;-74
2022/06/29 06:37:34;;;;;;;1999.90;999.90;;;25.80;97.60;;;;;;5087668;28;20124;-74
2022/06/29 06:42:43;;;;;;;1999.90;999.90;;;26.10;96.30;;;;;;5062407;28;20047;-74
2022/06/29 06:45:09;;;;;;;1999.90;999.90;;;26.30;92.40;;;;;;5061968;28;20044;-74
2022/06/29 06:47:35;;;;;;;1999.90;999.90;;;26.50;88.80;;;;;;5064724;28;20032;-74
2022/06/29 06:50:00;;;;;;;1999.90;999.90;;;26.60;89.70;;;;;;5076476;28;20641;-74
2022/06/29 06:52:26;;;;;;;1999.90;999.90;;;26.90;87.00;;;;;;5071862;28;20059;-74
2022/06/29 06:54:51;;;;;;;1999.90;999.90;;;27.10;90.00;;;;;;5058507;28;20123;-74
2022/06/29 06:57:17;;;;;;;1999.90;999.90;;;27.30;85.90;;;;;;5054662;28;20129;-74
2022/06/29 06:59:43;;;;;;;1999.90;999.90;;;27.50;87.30;;;;;;5053628;28;20040;-74
2022/06/29 07:02:08;;;;;;;1999.90;999.90;;;27.60;83.30;;;;;;5084387;28;20039;-75
2022/06/29 07:04:34;;;;;;;1999.90;999.90;;;27.80;84.30;;;;;;5043850;28;20051;-74
2022/06/29 07:07:00;;;;;;;1999.90;999.90;;;28.10;81.80;;;;;;5038989;28;20043;-74
2022/06/29 07:09:25;;;;;;;1999.90;999.90;;;28.10;82.80;;;;;;5070770;28;20053;-74
2022/06/29 07:11:51;;;;;;;1999.90;999.90;;;28.00;83.00;;;;;;5085567;28;20047;-74
2022/06/29 07:14:16;;;;;;;1999.90;999.90;;;27.90;80.80;;;;;;5059522;28;20044;-73
2022/06/29 07:16:42;;;;;;;1999.90;999.90;;;28.00;81.60;;;;;;5061641;28;20132;-74
2022/06/29 07:19:08;;;;;;;1999.90;999.90;;;27.90;78.80;;;;;;5063718;28;20638;-74
2022/06/29 07:21:33;;;;;;;1999.90;999.90;;;27.70;74.70;;;;;;5090470;28;20036;-74
2022/06/29 07:23:59;;;;;;;1999.90;999.90;;;27.80;76.20;;;;;;5046010;28;20491;-74
2022/06/29 07:26:28;;;;;;;1999.90;999.90;;;28.00;75.10;;;;;;5061256;28;20036;-74
2022/06/29 07:28:53;;;;;;;1999.90;999.90;;;28.10;73.40;;;;;;5066541;28;20037;-74
2022/06/29 07:31:19;;;;;;;1999.90;999.90;;;28.10;72.80;;;;;;5051874;28;20047;-74
2022/06/29 07:33:45;;;;;;;1999.90;999.90;;;28.00;67.80;;;;;;5064438;28;20043;-74
2022/06/29 07:36:11;;;;;;;1999.90;999.90;;;27.70;66.80;;;;;;5090341;28;20459;-73
2022/06/29 07:38:37;;;;;;;1999.90;999.90;;;27.60;72.70;;;;;;5049250;28;20573;-74
2022/06/29 07:41:03;;;;;;;1999.90;999.90;;;27.60;70.70;;;;;;5046891;28;20056;-74
2022/06/29 07:43:29;;;;;;;1999.90;999.90;;;27.60;70.40;;;;;;5057982;28;20068;-74
2022/06/29 07:45:58;;;;;;;1999.90;999.90;;;27.60;69.80;;;;;;5073693;28;20036;-74
2022/06/29 07:48:25;;;;;;;1999.90;999.90;;;27.50;68.30;;;;;;5079757;28;20040;-74
2022/06/29 07:50:51;;;;;;;1999.90;999.90;;;27.80;71.20;;;;;;5055439;28;20059;-74
2022/06/29 07:53:17;;;;;;;1999.90;999.90;;;28.20;71.90;;;;;;5075928;28;20047;-74
2022/06/29 07:55:44;;;;;;;1999.90;999.90;;;28.40;72.50;;;;;;5091406;28;20067;-74
2022/06/29 07:58:14;;;;;;;1999.90;999.90;;;28.50;69.80;;;;;;5056199;28;20048;-74
2022/06/29 08:00:41;;;;;;;1999.90;999.90;;;28.60;70.20;;;;;;5047539;28;20051;-74
2022/06/29 08:03:07;;;;;;;1999.90;999.90;;;28.50;67.10;;;;;;5040721;28;20040;-75
2022/06/29 08:05:34;;;;;;;1999.90;999.90;;;28.40;69.40;;;;;;5087595;28;20040;-74
2022/06/29 08:07:59;;;;;;;1999.90;999.90;;;28.50;68.30;;;;;;5092230;28;20440;-75
2022/06/29 08:10:25;;;;;;;1999.90;999.90;;;28.50;66.40;;;;;;5085745;28;20048;-74
2022/06/29 08:12:51;;;;;;;1999.90;999.90;;;28.40;64.70;;;;;;5074188;28;20043;-74
2022/06/29 08:15:17;;;;;;;1999.90;999.90;;;28.30;67.60;;;;;;5062691;28;20044;-74
2022/06/29 08:17:43;;;;;;;1999.90;999.90;;;28.30;65.40;;;;;;5057542;28;20044;-73
2022/06/29 08:20:10;;;;;;;1999.90;999.90;;;28.50;66.20;;;;;;5077626;28;20036;-74
2022/06/29 08:22:35;;;;;;;1999.90;999.90;;;28.40;66.00;;;;;;5073703;28;20044;-74
2022/06/29 08:25:02;;;;;;;1999.90;999.90;;;28.40;67.70;;;;;;5071761;28;20036;-74
2022/06/29 08:27:27;;;;;;;1999.90;999.90;;;28.40;64.50;;;;;;5071838;28;20090;-74
2022/06/29 08:29:54;;;;;;;1999.90;999.90;;;28.40;64.60;;;;;;5056003;28;20036;-74
2022/06/29 08:32:20;;;;;;;1999.90;999.90;;;28.30;64.60;;;;;;5060165;28;20562;-74
2022/06/29 08:34:46;;;;;;;1999.90;999.90;;;28.50;66.70;;;;;;5073028;28;20042;-73
2022/06/29 08:37:12;;;;;;;1999.90;999.90;;;28.70;65.60;;;;;;5105757;28;20149;-74
2022/06/29 08:39:38;;;;;;;1999.90;999.90;;;28.50;65.70;;;;;;5091540;28;20054;-74
2022/06/29 08:42:05;;;;;;;1999.90;999.90;;;28.10;62.00;;;;;;5063231;28;20071;-74
2022/06/29 08:44:38;;;;;;;1999.90;999.90;;;27.70;65.60;;;;;;5093271;28;20047;-73
2022/06/29 08:47:06;;;;;;;1999.90;999.90;;;27.50;65.60;;;;;;5095195;28;20409;-74
2022/06/29 08:49:32;;;;;;;1999.90;999.90;;;27.20;65.90;;;;;;5071787;28;20131;-74
2022/06/29 08:51:59;;;;;;;1999.90;999.90;;;26.90;66.70;;;;;;5072821;28;20075;-74
2022/06/29 08:54:25;;;;;;;1999.90;999.90;;;26.50;66.60;;;;;;5089793;28;20040;-74
2022/06/29 08:56:56;;;;;;;1999.90;999.90;;;26.20;68.30;;;;;;5072864;28;20101;-74
2022/06/29 08:59:22;;;;;;;1999.90;999.90;;;26.00;68.10;;;;;;5048696;28;20044;-74
2022/06/29 09:01:51;;;;;;;1999.90;999.90;;;26.00;69.50;;;;;;5056110;28;20040;-74
2022/06/29 09:04:17;;;;;;;1999.90;999.90;;;26.20;71.10;;;;;;5106866;28;20086;-73
2022/06/29 09:06:44;;;;;;;1999.90;999.90;;;26.50;71.00;;;;;;5089604;28;20036;-74
2022/06/29 09:09:10;;;;;;;1999.90;999.90;;;27.10;69.40;;;;;;5085401;28;20769;-74
2022/06/29 09:11:43;;;;;;;1999.90;999.90;;;27.70;68.30;;;;;;5070912;28;20127;-74
2022/06/29 09:14:12;;;;;;;1999.90;999.90;;;27.90;68.30;;;;;;5072667;28;20089;-75
2022/06/29 09:16:54;;;;;;;1999.90;999.90;;;28.40;69.50;;;;;;5106402;28;20044;-74
2022/06/29 09:19:20;;;;;;;;;;;29.00;69.80;;;;;;5099687;28;20043;-74
2022/06/29 09:21:47;;;;;;;1999.90;999.90;;;29.40;68.50;;;;;;5072551;28;19924;-74
2022/06/29 09:24:17;;;;;;;1999.90;999.90;;;29.70;65.40;;;;;;5072416;28;20040;-74
2022/06/29 09:26:43;;;;;;;1999.90;999.90;;;29.90;66.60;;;;;;5088409;28;20508;-74
2022/06/29 09:29:24;;;;;;;1999.90;999.90;;;29.90;64.80;;;;;;5063054;28;20032;-75
2022/06/29 09:32:05;;;;;;;1999.90;999.90;;;29.70;62.80;;;;;;5072568;28;20044;-75
2022/06/29 09:34:39;;;;;;;1999.90;999.90;;;29.60;64.20;;;;;;5100871;28;20501;-75
2022/06/29 09:37:06;;;;;;;1999.90;999.90;;;29.40;64.00;;;;;;5086713;28;20036;-73
2022/06/29 09:39:34;;;;;;;1999.90;999.90;;;29.50;65.20;;;;;;5071334;28;20083;-74
2022/06/29 09:42:00;;;;;;;1999.90;999.90;;;29.60;64.90;;;;;;5055396;28;20605;-74
2022/06/29 09:44:26;;;;;;;1999.90;999.90;;;29.70;60.90;;;;;;5091771;28;20229;-74
2022/06/29 09:46:55;;;;;;;1999.90;999.90;;;29.90;63.90;;;;;;5070553;28;20155;-74
2022/06/29 09:49:27;;;;;;;1999.90;999.90;;;30.00;62.00;;;;;;5051839;28;20036;-74
2022/06/29 09:51:57;;;;;;;1999.90;999.90;;;30.00;63.00;;;;;;5106237;28;20051;-74
2022/06/29 09:54:31;;;;;;;1999.90;999.90;;;29.80;61.20;;;;;;5105733;28;20052;-74
2022/06/29 09:56:57;;;;;;;1999.90;999.90;;;29.50;62.40;;;;;;5050849;28;20143;-74
2022/06/29 10:05:27;;;;;;;1999.90;999.90;;;29.20;61.70;;;;;;4990513;28;20455;-73
2022/06/29 10:07:55;;;;;;;1999.90;999.90;;;29.20;63.90;;;;;;4990829;28;20050;-74
2022/06/29 10:10:23;;;;;;;1999.90;999.90;;;29.40;63.10;;;;;;5031719;28;20127;-73
2022/06/29 10:16:08;;;;;;;1999.90;999.90;;;29.70;61.00;;;;;;5080332;28;20044;-73
2022/06/29 10:18:50;;;;;;;1999.90;999.90;;;29.70;61.60;;;;;;5087691;28;20454;-74
2022/06/29 10:21:25;;;;;;;1999.90;999.90;;;29.60;58.90;;;;;;5104725;28;20425;-74
2022/06/29 10:23:55;;;;;;;1999.90;999.90;;;29.60;61.40;;;;;;5067731;28;20114;-73
2022/06/29 10:26:35;;;;;;;1999.90;999.90;;;29.60;61.20;;;;;;5055184;28;20410;-74
2022/06/29 10:29:09;;;;;;;1999.90;999.90;;;29.70;62.00;;;;;;5071319;28;20464;-73
2022/06/29 10:31:53;;;;;;;1999.90;999.90;;;29.70;59.60;;;;;;5065989;28;20066;-74
2022/06/29 10:34:31;;;;;;;1999.90;999.90;;;29.90;61.30;;;;;;5066890;28;20493;-74
2022/06/29 10:37:09;;;;;;;1999.90;999.90;;;30.10;61.70;;;;;;5104306;28;20044;-74
2022/06/29 10:39:34;;;;;;;1999.90;999.90;;;30.10;61.70;;;;;;5086818;28;20051;-74
2022/06/29 10:44:57;;;;;;;1999.90;999.90;;;30.40;61.60;;;;;;5071007;28;20040;-73
2022/06/29 10:47:23;;;;;;;1999.90;999.90;;;30.10;54.70;;;;;;5071002;28;20051;-74
2022/06/29 10:49:48;;;;;;;1999.90;999.90;;;29.80;58.10;;;;;;5042853;28;20036;-74
2022/06/29 10:52:15;;;;;;;1999.90;999.90;;;29.50;59.30;;;;;;5071144;28;20052;-74
2022/06/29 10:54:41;;;;;;;1999.90;999.90;;;29.20;57.10;;;;;;5070631;28;20070;-74
2022/06/29 10:57:06;;;;;;;1999.90;999.90;;;29.00;57.80;;;;;;5071389;28;20078;-74
2022/06/29 10:59:36;;;;;;;1999.90;999.90;;;28.80;59.10;;;;;;5069370;28;20059;-73
2022/06/29 11:02:13;;;;;;;1999.90;999.90;;;28.80;61.10;;;;;;5104154;28;20171;-73
2022/06/29 11:04:40;;;;;;;1999.90;999.90;;;29.00;59.60;;;;;;5053494;28;20036;-73
2022/06/29 11:12:49;;;;;;;1999.90;999.90;;;29.70;60.70;;;;;;5070400;28;20759;-73
2022/06/29 11:15:48;;;;;;;1999.90;999.90;;;29.80;56.10;;;;;;5090103;28;20044;-74
2022/06/29 11:18:19;;;;;;;1999.90;999.90;;;29.90;56.40;;;;;;5086110;28;20043;-73
2022/06/29 11:20:50;;;;;;;1999.90;999.90;;;29.90;60.40;;;;;;5093373;28;20084;-73
2022/06/29 11:23:20;;;;;;;1999.90;999.90;;;30.10;58.00;;;;;;5103713;28;20035;-73
2022/06/29 11:25:48;;;;;;;1999.90;999.90;;;30.20;58.90;;;;;;5104563;28;20068;-73
2022/06/29 11:28:17;;;;;;;1999.90;999.90;;;30.30;57.70;;;;;;5103045;28;20034;-73
2022/06/29 11:30:57;;;;;;;1999.90;999.90;;;30.30;57.30;;;;;;5104361;28;20456;-73
2022/06/29 11:33:27;;;;;;;1999.90;999.90;;;30.30;57.50;;;;;;5081953;28;20667;-73
2022/06/29 11:35:54;;;;;;;1999.90;999.90;;;30.20;56.60;;;;;;5053502;28;20417;-73
2022/06/29 11:38:19;;;;;;;1999.90;999.90;;;30.20;57.20;;;;;;5087476;28;20040;-73
2022/06/29 11:40:49;;;;;;;1999.90;999.90;;;30.10;53.20;;;;;;5097318;28;20048;-73
2022/06/29 11:43:16;;;;;;;1999.90;999.90;;;30.10;55.30;;;;;;5087678;28;20041;-73
2022/06/29 11:45:56;;;;;;;1999.90;999.90;;;30.10;57.30;;;;;;5084023;28;20544;-73
2022/06/29 11:48:27;;;;;;;1999.90;999.90;;;30.10;55.90;;;;;;5054442;28;20447;-72
2022/06/29 11:50:57;;;;;;;1999.90;999.90;;;30.10;53.90;;;;;;5089050;28;20409;-73
2022/06/29 11:53:38;;;;;;;1999.90;999.90;;;30.00;56.10;;;;;;5108634;28;20455;-73
2022/06/29 11:56:13;;;;;;;1999.90;999.90;;;30.10;57.60;;;;;;5073338;28;20044;-73
2022/06/29 11:58:40;;;;;;;1999.90;999.90;;;30.20;57.80;;;;;;5105565;28;20093;-73
2022/06/29 12:01:15;;;;;;;1999.90;999.90;;;30.30;56.60;;;;;;5107653;28;20048;-73
2022/06/29 12:04:09;;;;;;;1999.90;999.90;;;30.40;56.10;;;;;;5108604;28;20063;-73
2022/06/29 12:06:36;;;;;;;1999.90;999.90;;;30.50;54.90;;;;;;5105912;28;20044;-73
2022/06/29 12:09:04;;;;;;;1999.90;999.90;;;30.50;54.00;;;;;;5082985;28;20170;-72
2022/06/29 12:11:30;;;;;;;1999.90;999.90;;;30.40;53.40;;;;;;5107839;28;20048;-73
2022/06/29 12:13:56;;;;;;;1999.90;999.90;;;30.00;54.10;;;;;;5068850;28;20043;-73
2022/06/29 12:16:22;;;;;;;1999.90;999.90;;;29.70;53.90;;;;;;5068566;28;20117;-73
2022/06/29 12:18:47;;;;;;;1999.90;999.90;;;29.50;53.20;;;;;;5073527;28;20506;-73
2022/06/29 12:21:13;;;;;;;1999.90;999.90;;;29.50;54.60;;;;;;5055838;28;20048;-73
2022/06/29 12:23:39;;;;;;;1999.90;999.90;;;29.40;57.80;;;;;;5068152;28;20055;-73
2022/06/29 12:26:06;;;;;;;1999.90;999.90;;;29.60;55.90;;;;;;5073425;28;20391;-74
2022/06/29 12:28:32;;;;;;;1999.90;999.90;;;29.70;54.70;;;;;;5059050;28;20038;-73